FW7405 Weather Reports


time (UTC)temp
C
wind
direction
speed
KPH
gust
KPH
rain 1hr
cm
rain 24hr
cm
rain mn
cm
humidity
%
barometer
mb
20240222101908 -17 0.0 0.0 0.00 0.00 0.00 1002.2
20240222101408 -17 0.0 0.0 0.00 0.00 0.00 1002.5
20240222100907 -17 0.0 0.0 0.00 0.00 0.00 1002.5
20240222100405 -17 0.0 0.0 0.00 0.00 0.00 1002.8
20240222095904 -17 0.0 0.0 0.00 0.00 0.00 1002.5
20240222095402 -17 0.0 0.0 0.00 0.00 0.00 1002.5
20240222094900 -17 0.0 0.0 0.00 0.00 0.00 1002.5
20240222094359 -17 0.0 0.0 0.00 0.00 0.00 1002.8
20240222093857 -17 0.0 0.0 0.00 0.00 0.00 1002.8
20240222093356 -17 0.0 0.0 0.00 0.00 0.00 1002.8
20240222092856 -17 0.0 0.0 0.00 0.00 0.00 1002.8
20240222092355 -17 0.0 0.0 0.00 0.00 0.00 1003.3
20240222091854 8 301 3.2 4.8 0.00 0.00 0.00 88 1003.6
20240222091354 8 301 3.2 4.8 0.00 0.00 0.00 88 1002.8
20240222090852 8 323 4.8 6.4 0.00 0.00 0.00 88 1002.8
20240222090351 8 296 4.8 4.8 0.00 0.00 0.00 87 1002.8
20240222085850 8 315 4.8 4.8 0.00 0.00 0.00 86 1002.8
20240222085348 8 328 6.4 6.4 0.00 0.00 0.00 86 1002.8
20240222084847 8 308 4.8 6.4 0.00 0.00 0.00 86 1002.5
20240222084345 8 44 3.2 4.8 0.00 0.00 0.00 86 1002.5
20240222083843 8 74 3.2 4.8 0.00 0.00 0.00 86 1002.5
20240222083343 8 64 1.6 4.8 0.00 0.00 0.00 87 1002.5
20240222082842 8 57 3.2 4.8 0.00 0.00 0.00 87 1002.5
20240222082340 8 72 3.2 6.4 0.00 0.00 0.00 86 1002.5
20240222081839 8 19 8.0 11.3 0.00 0.00 0.00 85 1002.2
20240222081337 9 26 1.6 4.8 0.00 0.00 0.00 82 1002.8
20240222080235 9 70 8.0 11.3 0.00 0.00 0.00 81 1003.3
20240222075734 9 335 1.6 1.6 0.00 0.00 0.00 81 1003.3
20240222075233 9 352 8.0 9.7 0.00 0.00 0.00 81 1003.3
20240222074732 8 315 8.0 14.5 0.00 0.00 0.00 82 1003.6
20240222074232 8 341 6.4 6.4 0.00 0.00 0.00 82 1003.3
20240222073731 9 303 6.4 6.4 0.00 0.00 0.00 82 1003.6
20240222073230 9 312 6.4 9.7 0.00 0.00 0.00 82 1003.6
20240222072729 9 341 3.2 4.8 0.00 0.00 0.00 82 1003.6
20240222072227 9 38 3.2 4.8 0.00 0.00 0.00 82 1003.6
20240222071728 9 359 1.6 1.6 0.00 0.00 0.00 82 1003.6
20240222071227 9 339 3.2 9.7 0.00 0.00 0.00 82 1003.6
20240222070727 9 307 1.6 1.6 0.00 0.00 0.00 82 1004.0
20240222070226 9 328 3.2 4.8 0.00 0.00 0.00 82 1004.0
20240222065724 9 297 3.2 4.8 0.00 0.00 0.00 83 1004.0
20240222065223 9 278 3.2 4.8 0.00 0.00 0.00 84 1004.0
20240222064722 9 293 0.0 0.0 0.00 0.00 0.00 85 1004.0
20240222064222 9 314 1.6 1.6 0.00 0.00 0.00 86 1004.0
20240222063720 9 298 0.0 1.6 0.00 0.00 0.00 86 1004.0
20240222063220 9 313 3.2 4.8 0.00 0.00 0.00 87 1004.0
20240222062718 10 288 0.0 0.0 0.00 0.00 0.00 87 1004.0
20240222062216 10 298 0.0 1.6 0.00 0.00 0.00 87 1004.0
20240222061715 10 308 0.0 0.0 0.00 0.00 0.00 87 1004.0
20240222061215 10 307 1.6 1.6 0.00 0.00 0.00 86 1004.0
20240222060715 10 286 0.0 0.0 0.00 0.00 0.00 86 1004.0
20240222060213 10 319 1.6 1.6 0.00 0.00 0.00 86 1004.0
20240222055712 10 338 0.0 1.6 0.00 0.00 0.00 86 1004.0
20240222055210 10 304 0.0 1.6 0.00 0.00 0.00 86 1004.3
20240222054708 10 279 0.0 0.0 0.00 0.00 0.00 86 1004.3
20240222054207 10 279 0.0 0.0 0.00 0.00 0.00 85 1004.6
20240222053707 10 269 0.0 0.0 0.00 0.00 0.00 85 1004.3
20240222053207 10 282 0.0 0.0 0.00 0.00 0.00 85 1004.6
20240222052706 10 279 0.0 0.0 0.00 0.00 0.00 85 1004.6
20240222052204 10 282 0.0 0.0 0.00 0.00 0.00 85 1004.6
20240222051703 10 282 0.0 0.0 0.00 0.00 0.00 85 1004.6
20240222051202 10 281 0.0 0.0 0.00 0.00 0.00 84 1005.0
20240222050700 10 276 0.0 0.0 0.00 0.00 0.00 84 1005.0
20240222050158 11 282 0.0 0.0 0.00 0.00 0.00 84 1005.0
20240222045656 11 284 0.0 0.0 0.00 0.00 0.00 84 1005.0
20240222045156 10 298 0.0 0.0 0.00 0.00 0.00 84 1005.0
20240222044655 10 240 1.6 1.6 0.00 0.00 0.00 86 1005.0
20240222044155 10 284 0.0 0.0 0.00 0.00 0.00 86 1005.0
20240222043653 10 274 0.0 0.0 0.00 0.00 0.00 87 1005.0
20240222043152 10 275 0.0 0.0 0.00 0.00 0.00 87 1005.0
20240222042651 10 275 0.0 0.0 0.00 0.00 0.00 87 1005.3
20240222042147 10 279 0.0 0.0 0.00 0.00 0.00 86 1005.0
20240222041645 10 278 0.0 0.0 0.00 0.00 0.00 86 1005.0
20240222041144 10 279 0.0 0.0 0.00 0.00 0.00 86 1005.0
20240222040643 10 305 0.0 0.0 0.00 0.00 0.00 86 1005.3
20240222040142 10 278 0.0 0.0 0.00 0.00 0.00 86 1005.3
20240222035641 10 272 0.0 0.0 0.00 0.00 0.00 85 1005.0
20240222035140 10 278 0.0 0.0 0.00 0.00 0.00 85 1005.0
20240222034640 10 295 0.0 0.0 0.00 0.00 0.00 85 1005.3
20240222034136 10 281 0.0 0.0 0.00 0.00 0.00 85 1005.3
20240222033636 10 278 0.0 0.0 0.00 0.00 0.00 85 1005.3
20240222033132 10 276 0.0 0.0 0.00 0.00 0.00 86 1005.3
20240222032630 9 236 0.0 0.0 0.00 0.00 0.00 86 1005.3
20240222032129 9 236 0.0 0.0 0.00 0.00 0.00 85 1005.3
20240222031627 10 236 0.0 0.0 0.00 0.00 0.00 85 1005.7
20240222031126 10 236 0.0 0.0 0.00 0.00 0.00 85 1005.7
20240222030622 10 236 0.0 0.0 0.00 0.00 0.00 84 1005.7
20240222030122 10 236 0.0 0.0 0.00 0.00 0.00 84 1005.7
20240222025620 10 236 0.0 0.0 0.00 0.00 0.00 84 1005.7
20240222025118 10 236 0.0 0.0 0.00 0.00 0.00 83 1005.7
20240222024616 10 236 0.0 0.0 0.00 0.00 0.00 83 1006.0
20240222024116 10 236 0.0 0.0 0.00 0.00 0.00 82 1006.0
20240222023615 10 236 0.0 0.0 0.00 0.00 0.00 82 1006.0
20240222023113 10 234 0.0 0.0 0.00 0.00 0.00 83 1006.0
20240222022612 10 234 0.0 0.0 0.00 0.00 0.00 83 1006.0
20240222022111 10 234 0.0 0.0 0.00 0.00 0.00 83 1006.0
20240222021610 10 234 0.0 0.0 0.00 0.00 0.00 83 1006.0
20240222021109 10 234 0.0 0.0 0.00 0.00 0.00 83 1006.0
20240222020608 10 234 0.0 0.0 0.00 0.00 0.00 83 1006.0
20240222020108 10 234 0.0 1.6 0.00 0.00 0.00 82 1006.0
20240222015607 11 234 0.0 1.6 0.00 0.00 0.00 81 1006.0
20240222015107 11 234 0.0 0.0 0.00 0.00 0.00 80 1005.7
20240222014606 11 234 0.0 0.0 0.00 0.00 0.00 80 1006.0
20240222014104 11 234 0.0 0.0 0.00 0.00 0.00 79 1006.0
20240222013603 11 234 0.0 0.0 0.00 0.00 0.00 79 1005.7
20240222013101 12 234 0.0 0.0 0.00 0.00 0.00 78 1006.0
20240222012559 12 234 0.0 0.0 0.00 0.00 0.00 78 1006.0
20240222012058 12 234 0.0 0.0 0.00 0.00 0.00 78 1006.0
20240222011556 12 234 0.0 0.0 0.00 0.00 0.00 77 1006.0
20240222011056 12 234 0.0 0.0 0.00 0.00 0.00 76 1006.3
20240222010555 12 234 1.6 1.6 0.00 0.00 0.00 77 1006.3
20240222010053 12 234 1.6 1.6 0.00 0.00 0.00 78 1006.0
20240222005551 12 234 3.2 4.8 0.00 0.00 0.00 77 1006.0
20240222005051 12 234 1.6 1.6 0.00 0.00 0.00 77 1006.0
20240222004550 12 234 1.6 1.6 0.00 0.00 0.00 77 1006.0
20240222004048 12 234 1.6 1.6 0.00 0.00 0.00 77 1006.0
20240222003548 12 234 0.0 1.6 0.00 0.00 0.00 77 1006.0
20240222003047 12 234 1.6 1.6 0.00 0.00 0.00 77 1006.3
20240222002547 12 234 1.6 1.6 0.00 0.00 0.00 76 1006.3
20240222002045 12 234 1.6 1.6 0.00 0.00 0.00 76 1006.3
20240222001543 12 234 3.2 4.8 0.00 0.00 0.00 76 1006.0
20240222001040 12 236 1.6 1.6 0.00 0.00 0.00 75 1006.3
20240222000539 12 236 0.0 1.6 0.00 0.00 0.00 75 1006.0
20240222000038 12 236 0.0 0.0 0.00 0.00 0.00 75 1006.0
20240221235534 12 236 0.0 1.6 0.00 0.00 0.00 76 1006.0
20240221235032 12 236 1.6 1.6 0.00 0.00 0.00 75 1006.0
20240221234529 13 236 0.0 0.0 0.00 0.00 0.00 74 1006.0
20240221234027 13 236 1.6 1.6 0.00 0.00 0.00 73 1006.0
20240221233525 13 236 3.2 4.8 0.00 0.00 0.00 72 1006.0
20240221233024 13 236 1.6 1.6 0.00 0.00 0.00 71 1006.0
20240221232521 13 242 0.0 1.6 0.00 0.00 0.00 70 1006.0
20240221232020 14 223 1.6 1.6 0.00 0.00 0.00 68 1006.0
20240221231518 14 225 3.2 4.8 0.00 0.00 0.00 67 1006.0
20240221231005 15 231 1.6 1.6 0.00 0.00 0.00 64 1006.0
20240221230505 15 166 3.2 4.8 0.00 0.00 0.00 62 1006.0
20240221230004 15 198 4.8 6.4 0.00 0.00 0.00 61 1006.0
20240221225504 15 235 1.6 1.6 0.00 0.00 0.00 60 1006.0
20240221225003 15 238 1.6 1.6 0.00 0.00 0.00 60 1006.3
20240221224502 16 249 1.6 1.6 0.00 0.00 0.00 62 1006.3
20240221224000 16 248 1.6 1.6 0.00 0.00 0.00 59 1006.3
20240221223500 16 251 0.0 0.0 0.00 0.00 0.00 59 1006.3
20240221222958 16 247 1.6 1.6 0.00 0.00 0.00 55 1006.7
20240221222456 16 261 0.0 0.0 0.00 0.00 0.00 53 1006.7
20240221221954 16 265 0.0 0.0 0.00 0.00 0.00 55 1006.7
20240221221451 17 273 0.0 0.0 0.00 0.00 0.00 54 1006.7
20240221220947 16 274 0.0 0.0 0.00 0.00 0.00 54 1006.7
20240221220446 16 279 0.0 0.0 0.00 0.00 0.00 53 1007.0
20240221215945 16 258 0.0 0.0 0.00 0.00 0.00 53 1007.0
20240221215443 16 258 0.0 0.0 0.00 0.00 0.00 54 1006.7
20240221214942 16 242 3.2 4.8 0.00 0.00 0.00 54 1007.0
20240221214442 16 265 0.0 0.0 0.00 0.00 0.00 53 1007.0
20240221213941 17 244 0.0 1.6 0.00 0.00 0.00 53 1007.0
20240221213440 17 214 4.8 6.4 0.00 0.00 0.00 52 1007.0
20240221212939 17 239 1.6 4.8 0.00 0.00 0.00 52 1007.0
20240221212435 17 245 0.0 1.6 0.00 0.00 0.00 52 1007.0
20240221211934 17 274 0.0 0.0 0.00 0.00 0.00 52 1007.0
20240221211433 17 265 0.0 0.0 0.00 0.00 0.00 51 1007.3
20240221210931 17 175 0.0 1.6 0.00 0.00 0.00 51 1007.3
20240221210428 17 297 3.2 4.8 0.00 0.00 0.00 51 1007.3
20240221205927 17 203 1.6 1.6 0.00 0.00 0.00 51 1007.3
20240221205426 17 245 3.2 4.8 0.00 0.00 0.00 51 1007.3
20240221204926 17 168 1.6 4.8 0.00 0.00 0.00 51 1007.3
20240221204424 17 165 6.4 11.3 0.00 0.00 0.00 51 1007.3
20240221203922 17 255 0.0 0.0 0.00 0.00 0.00 52 1007.8
20240221203421 17 157 6.4 11.3 0.00 0.00 0.00 51 1007.3
20240221202920 17 277 1.6 1.6 0.00 0.00 0.00 52 1007.8
20240221202419 17 292 3.2 4.8 0.00 0.00 0.00 53 1007.8
20240221201916 17 161 9.7 11.3 0.00 0.00 0.00 55 1007.3
20240221201416 17 180 1.6 4.8 0.00 0.00 0.00 54 1007.8
20240221200915 17 228 1.6 4.8 0.00 0.00 0.00 54 1007.8
20240221200414 16 179 6.4 9.7 0.00 0.00 0.00 54 1008.1
20240221195915 16 211 4.8 6.4 0.00 0.00 0.00 53 1008.1
20240221195413 16 244 0.0 1.6 0.00 0.00 0.00 53 1008.1
20240221194913 16 160 6.4 9.7 0.00 0.00 0.00 54 1008.1
20240221194412 16 212 0.0 1.6 0.00 0.00 0.00 53 1008.1
20240221193911 16 167 11.3 14.5 0.00 0.00 0.00 52 1008.1
20240221193409 16 188 4.8 9.7 0.00 0.00 0.00 52 1008.1
20240221192908 16 186 6.4 9.7 0.00 0.00 0.00 52 1008.5
20240221192406 16 172 4.8 6.4 0.00 0.00 0.00 52 1008.5
20240221191904 16 144 9.7 14.5 0.00 0.00 0.00 52 1008.5
20240221191402 16 313 6.4 9.7 0.00 0.00 0.00 54 1008.5
20240221190901 16 178 4.8 6.4 0.00 0.00 0.00 55 1008.5
20240221190358 16 148 3.2 6.4 0.00 0.00 0.00 54 1008.5
20240221185857 16 236 4.8 9.7 0.00 0.00 0.00 55 1008.5
20240221185354 16 243 3.2 9.7 0.00 0.00 0.00 54 1008.5
20240221184849 16 155 16.1 25.7 0.00 0.00 0.00 54 1008.5
20240221184349 16 188 6.4 9.7 0.00 0.00 0.00 56 1008.5
20240221183848 16 160 8.0 11.3 0.00 0.00 0.00 55 1008.5
20240221183346 16 162 11.3 22.5 0.00 0.00 0.00 55 1008.5
20240221182845 16 177 14.5 20.9 0.00 0.00 0.00 55 1008.8
20240221182343 16 187 6.4 11.3 0.00 0.00 0.00 54 1008.8
20240221181842 16 137 9.7 11.3 0.00 0.00 0.00 54 1008.8
20240221181341 16 181 11.3 16.1 0.00 0.00 0.00 52 1009.1
20240221180841 17 166 8.0 16.1 0.00 0.00 0.00 54 1009.1
20240221180340 17 173 6.4 9.7 0.00 0.00 0.00 54 1009.1
20240221175841 16 156 11.3 14.5 0.00 0.00 0.00 52 1009.5
20240221175340 16 167 6.4 11.3 0.00 0.00 0.00 54 1009.5
20240221174838 15 173 11.3 16.1 0.00 0.00 0.00 56 1007.0
20240221174334 15 280 8.0 11.3 0.00 0.00 0.00 54 1009.8
20240221173834 15 188 14.5 22.5 0.00 0.00 0.00 56 1009.8
20240221173332 15 206 9.7 16.1 0.00 0.00 0.00 55 1009.8
20240221172830 15 169 11.3 20.9 0.00 0.00 0.00 56 1010.2
20240221172328 15 168 12.9 16.1 0.00 0.00 0.00 57 1010.2
20240221171808 15 153 9.7 16.1 0.00 0.00 0.00 59 1010.2
20240221171307 15 177 11.3 17.7 0.00 0.00 0.00 59 1010.5
20240221170805 15 149 19.3 25.7 0.00 0.00 0.00 58 1010.5
20240221170305 15 177 20.9 29.0 0.00 0.00 0.00 57 1010.5
20240221165803 14 260 9.7 14.5 0.00 0.00 0.00 60 1010.5
20240221165305 13 147 14.5 22.5 0.00 0.00 0.00 61 1010.2
20240221164748 13 168 14.5 16.1 0.00 0.00 0.00 63 1010.5
20240221164248 13 157 11.3 17.7 0.00 0.00 0.00 62 1010.5
20240221163747 13 200 11.3 14.5 0.00 0.00 0.00 61 1010.5
20240221163245 13 148 19.3 25.7 0.00 0.00 0.00 59 1010.5
20240221162743 13 170 14.5 20.9 0.00 0.00 0.00 61 1010.8
20240221162241 13 171 11.3 17.7 0.00 0.00 0.00 60 1010.8
20240221161728 13 187 11.3 14.5 0.00 0.00 0.00 62 1010.8
20240221161227 12 191 16.1 25.7 0.00 0.00 0.00 62 1010.8
20240221160727 12 178 14.5 20.9 0.00 0.00 0.00 63 1011.2
20240221160225 12 197 17.7 20.9 0.00 0.00 0.00 61 1010.8
20240221155724 12 147 8.0 14.5 0.00 0.00 0.00 62 1011.2
20240221155222 12 88 14.5 17.7 0.00 0.00 0.00 63 1011.2
20240221154718 11 208 8.0 11.3 0.00 0.00 0.00 65 1011.2
20240221154216 11 170 16.1 20.9 0.00 0.00 0.00 67 1011.2
20240221153715 11 167 14.5 16.1 0.00 0.00 0.00 67 1011.2
20240221153213 11 233 11.3 16.1 0.00 0.00 0.00 68 1011.2
20240221152709 11 153 14.5 20.9 0.00 0.00 0.00 67 1011.5
20240221152206 11 174 11.3 16.1 0.00 0.00 0.00 68 1011.5
20240221151705 10 192 8.0 9.7 0.00 0.00 0.00 69 1011.5
20240221151205 10 207 11.3 14.5 0.00 0.00 0.00 69 1011.5
20240221150656 10 197 9.7 14.5 0.00 0.00 0.00 70 1011.5
20240221150155 9 155 12.9 16.1 0.00 0.00 0.00 71 1011.2
20240221145654 9 142 12.9 16.1 0.00 0.00 0.00 73 1011.5
20240221145153 8 180 14.5 20.9 0.00 0.00 0.00 74 1011.5
20240221144653 7 197 9.7 11.3 0.00 0.00 0.00 76 1011.5
20240221144153 7 247 12.9 16.1 0.00 0.00 0.00 77 1011.9
20240221143651 6 168 11.3 14.5 0.00 0.00 0.00 79 1011.5
20240221143151 6 179 9.7 14.5 0.00 0.00 0.00 80 1011.9
20240221142651 7 190 11.3 11.3 0.00 0.00 0.00 79 1011.5
20240221142151 6 168 9.7 11.3 0.00 0.00 0.00 80 1011.9
20240221141649 6 173 12.9 16.1 0.00 0.00 0.00 82 1011.5
20240221141146 5 167 9.7 11.3 0.00 0.00 0.00 82 1011.9
20240221140646 5 183 9.7 11.3 0.00 0.00 0.00 82 1011.9
20240221140145 5 184 11.3 11.3 0.00 0.00 0.00 83 1011.9
20240221135644 5 177 9.7 14.5 0.00 0.00 0.00 83 1011.9
20240221135143 4 174 12.9 16.1 0.00 0.00 0.00 83 1011.9
20240221134643 3 179 6.4 9.7 0.00 0.00 0.00 83 1011.9
20240221134143 3 158 8.0 9.7 0.00 0.00 0.00 83 1011.9
20240221133642 3 168 11.3 14.5 0.00 0.00 0.00 84 1011.9
20240221133141 3 163 11.3 14.5 0.00 0.00 0.00 84 1011.9
20240221132639 3 184 11.3 14.5 0.00 0.00 0.00 84 1011.9
20240221132138 3 182 11.3 16.1 0.00 0.00 0.00 84 1011.9
20240221131637 3 176 11.3 14.5 0.00 0.00 0.00 84 1011.9
20240221131136 3 168 9.7 11.3 0.00 0.00 0.00 83 1011.9
20240221130635 3 165 11.3 14.5 0.00 0.00 0.00 83 1011.9
20240221130133 3 180 8.0 9.7 0.00 0.00 0.00 83 1011.9
20240221125633 3 170 12.9 16.1 0.00 0.00 0.00 83 1012.3
20240221125132 3 187 11.3 14.5 0.00 0.00 0.00 83 1012.3
20240221124631 3 171 8.0 11.3 0.00 0.00 0.00 83 1012.3
20240221124130 3 172 8.0 9.7 0.00 0.00 0.00 83 1012.3
20240221123630 3 161 11.3 14.5 0.00 0.00 0.00 82 1012.3
20240221123130 3 181 8.0 9.7 0.00 0.00 0.00 82 1012.3
20240221122628 3 189 8.0 9.7 0.00 0.00 0.00 83 1012.3
20240221122127 2 195 4.8 6.4 0.00 0.00 0.00 83 1012.6
20240221121626 3 175 6.4 6.4 0.00 0.00 0.00 83 1012.3
20240221121126 3 174 8.0 11.3 0.00 0.00 0.00 83 1011.9
20240221120625 3 193 6.4 9.7 0.00 0.00 0.00 83 1012.3
20240221120125 3 181 4.8 6.4 0.00 0.00 0.00 82 1012.3
20240221115623 3 195 6.4 6.4 0.00 0.00 0.00 82 1012.3
20240221115122 3 213 8.0 11.3 0.00 0.00 0.00 82 1012.3
20240221114620 3 156 6.4 6.4 0.00 0.00 0.00 82 1012.6
20240221114120 3 184 6.4 9.7 0.00 0.00 0.00 82 1012.6
20240221113620 3 167 8.0 9.7 0.00 0.00 0.00 83 1012.3
20240221113120 3 178 8.0 9.7 0.00 0.00 0.00 83 1012.6
20240221112619 2 163 8.0 11.3 0.00 0.00 0.00 83 1012.6
20240221112118 2 183 8.0 11.3 0.00 0.00 0.00 83 1012.6
20240221111616 2 207 8.0 11.3 0.00 0.00 0.00 83 1012.6
20240221111114 2 185 8.0 11.3 0.00 0.00 0.00 83 1012.6
20240221110613 2 176 8.0 9.7 0.00 0.00 0.00 83 1013.0
20240221110113 2 189 8.0 9.7 0.00 0.00 0.00 83 1013.0
20240221105613 2 200 9.7 11.3 0.00 0.00 0.00 83 1013.0
20240221105112 2 167 6.4 6.4 0.00 0.00 0.00 83 1013.0
20240221104611 3 192 8.0 9.7 0.00 0.00 0.00 83 1013.0
20240221104110 3 186 6.4 9.7 0.00 0.00 0.00 82 1013.0
20240221103608 3 174 8.0 11.3 0.00 0.00 0.00 82 1013.0
20240221103106 3 173 4.8 6.4 0.00 0.00 0.00 82 1013.0
20240221102605 3 160 8.0 9.7 0.00 0.00 0.00 82 1013.0
20240221102103 3 163 9.7 11.3 0.00 0.00 0.00 82 1013.0